Time;durP1;ratioP1;P1;durP2;ratioP2;P2;SDS_P1;SDS_P2;PMS_P1;PMS_P2;Temp;Humidity;BMP_temperature;BMP_pressure;BME280_temperature;BME280_humidity;BME280_pressure;Samples;Min_cycle;Max_cycle;Signal;HPM_P1;HPM_P2
2022/10/02 00:00:18;;;;;;;33.58;20.77;;;7.70;99.90;;;;;;5080618;28;20058;-72
2022/10/02 00:02:51;;;;;;;35.63;20.77;;;7.70;99.90;;;;;;5072709;28;20052;-72
2022/10/02 00:05:23;;;;;;;29.20;19.23;;;7.70;99.90;;;;;;5090133;28;20614;-72
2022/10/02 00:07:59;;;;;;;31.92;20.15;;;7.70;99.90;;;;;;5110653;28;20604;-72
2022/10/02 00:10:32;;;;;;;30.50;18.10;;;7.60;99.90;;;;;;5092777;28;20453;-73
2022/10/02 00:13:06;;;;;;;30.52;18.77;;;7.60;99.90;;;;;;5084636;28;20048;-73
2022/10/02 00:15:37;;;;;;;30.70;18.65;;;7.70;99.90;;;;;;5089603;28;20060;-73
2022/10/02 00:18:13;;;;;;;33.35;18.25;;;7.60;99.90;;;;;;5090435;28;20048;-73
2022/10/02 00:21:00;;;;;;;29.45;18.77;;;7.60;99.90;;;;;;5089828;28;20044;-73
2022/10/02 00:23:34;;;;;;;26.60;17.85;;;7.60;99.90;;;;;;5089732;28;20086;-72
2022/10/02 00:26:08;;;;;;;29.48;18.20;;;7.60;99.90;;;;;;5091292;28;20130;-72
2022/10/02 00:28:51;;;;;;;29.90;18.42;;;7.60;99.90;;;;;;5073630;28;20073;-72
2022/10/02 00:31:34;;;;;;;24.65;15.93;;;7.50;99.90;;;;;;5086478;28;20048;-72
2022/10/02 00:34:19;;;;;;;34.00;17.53;;;7.50;99.90;;;;;;5084716;28;20060;-73
2022/10/02 00:36:58;;;;;;;25.98;16.65;;;7.50;99.90;;;;;;5072995;28;20365;-72
2022/10/02 00:39:40;;;;;;;20.77;14.82;;;7.50;99.90;;;;;;5089449;28;20414;-72
2022/10/02 00:42:50;;;;;;;21.88;13.52;;;7.50;99.90;;;;;;5055839;28;20044;-72
2022/10/02 00:46:02;;;;;;;21.40;14.27;;;7.50;99.90;;;;;;5056404;28;20048;-73
2022/10/02 00:48:51;;;;;;;24.67;15.15;;;7.40;99.90;;;;;;5020913;28;20048;-72
2022/10/02 00:51:43;;;;;;;24.63;15.40;;;7.40;99.90;;;;;;5078948;28;20081;-73
2022/10/02 00:54:27;;;;;;;21.45;15.68;;;7.30;99.90;;;;;;5102315;28;20510;-73
2022/10/02 00:57:06;;;;;;;24.35;14.60;;;7.30;99.90;;;;;;5105613;28;20050;-73
2022/10/02 00:59:58;;;;;;;25.95;15.95;;;7.40;99.90;;;;;;5086743;28;20044;-73
2022/10/02 01:03:00;;;;;;;23.88;15.18;;;7.30;99.90;;;;;;5090554;28;20093;-73
2022/10/02 01:05:30;;;;;;;29.10;17.83;;;7.30;99.90;;;;;;5091200;28;20101;-73
2022/10/02 01:07:57;;;;;;;31.10;17.80;;;7.30;99.90;;;;;;5088903;28;20075;-73
2022/10/02 01:10:26;;;;;;;25.45;17.23;;;7.30;99.90;;;;;;5088989;28;20055;-73
2022/10/02 01:12:55;;;;;;;26.20;16.27;;;7.30;99.90;;;;;;5090446;28;20143;-73
2022/10/02 01:15:29;;;;;;;29.15;16.48;;;7.40;99.90;;;;;;5090833;28;20136;-73
2022/10/02 01:17:57;;;;;;;33.63;18.67;;;7.40;99.90;;;;;;5081699;28;20484;-73
2022/10/02 01:20:34;;;;;;;27.70;18.30;;;7.40;99.90;;;;;;5089878;28;20051;-72
2022/10/02 01:23:19;;;;;;;25.58;16.13;;;7.40;99.90;;;;;;5072071;28;20170;-72
2022/10/02 01:25:48;;;;;;;26.23;16.65;;;7.40;99.90;;;;;;5088458;28;20422;-72
2022/10/02 01:28:15;;;;;;;24.90;15.02;;;7.40;99.90;;;;;;5085112;28;20044;-72
2022/10/02 01:30:46;;;;;;;27.10;16.67;;;7.40;99.90;;;;;;5089008;28;20047;-72
2022/10/02 01:33:14;;;;;;;27.02;15.07;;;7.50;99.90;;;;;;5089621;28;20052;-71
2022/10/02 01:35:43;;;;;;;21.73;14.65;;;7.40;99.90;;;;;;5067532;28;20170;-71
2022/10/02 01:38:13;;;;;;;23.80;13.98;;;7.40;99.90;;;;;;5089727;28;20075;-71
2022/10/02 01:40:42;;;;;;;22.52;14.50;;;7.50;99.90;;;;;;5088883;28;20196;-72
2022/10/02 01:43:14;;;;;;;25.15;14.27;;;7.50;99.90;;;;;;5089125;28;20142;-71
2022/10/02 01:45:53;;;;;;;20.92;14.55;;;7.50;99.90;;;;;;5076089;28;20044;-71
2022/10/02 01:48:45;;;;;;;24.17;14.52;;;7.40;99.90;;;;;;5088385;28;20473;-71
2022/10/02 01:51:53;;;;;;;22.27;14.32;;;7.40;99.90;;;;;;5070523;28;20056;-72
2022/10/02 01:54:33;;;;;;;19.13;12.80;;;7.40;99.90;;;;;;5077218;28;20063;-71
2022/10/02 01:57:15;;;;;;;22.20;13.25;;;7.40;99.90;;;;;;5071098;28;20075;-72
2022/10/02 02:00:04;;;;;;;22.15;12.68;;;7.40;99.90;;;;;;5090191;28;20404;-71
2022/10/02 02:02:58;;;;;;;23.58;13.43;;;7.40;99.90;;;;;;5069529;28;20048;-71
2022/10/02 02:05:40;;;;;;;17.58;12.45;;;7.40;99.90;;;;;;5079727;28;20047;-71
2022/10/02 02:08:15;;;;;;;20.45;12.15;;;7.30;99.90;;;;;;5108871;28;20063;-72
2022/10/02 02:10:52;;;;;;;16.50;11.18;;;7.30;99.90;;;;;;5110376;28;20055;-72
2022/10/02 02:13:26;;;;;;;19.40;11.98;;;7.30;99.90;;;;;;5093165;28;20138;-72
2022/10/02 02:16:20;;;;;;;;;;;7.30;99.90;;;;;;5074807;28;20117;-73
2022/10/02 02:18:54;;;;;;;17.08;11.57;;;7.20;99.90;;;;;;5071636;28;20432;-72
2022/10/02 02:21:29;;;;;;;17.40;11.80;;;7.20;99.90;;;;;;5087245;28;20056;-72
2022/10/02 02:24:00;;;;;;;15.32;10.82;;;7.30;99.90;;;;;;5088171;28;20109;-72
2022/10/02 02:26:29;;;;;;;15.00;10.52;;;7.30;99.90;;;;;;5070306;28;20072;-71
2022/10/02 02:29:02;;;;;;;14.27;9.75;;;7.30;99.90;;;;;;5088458;28;20058;-71
2022/10/02 02:31:36;;;;;;;16.90;11.45;;;7.20;99.90;;;;;;5070342;28;20048;-73
2022/10/02 02:34:08;;;;;;;12.10;9.20;;;7.30;99.90;;;;;;5088411;28;20500;-72
2022/10/02 02:36:39;;;;;;;13.80;10.40;;;7.20;99.90;;;;;;5088802;28;20134;-72
2022/10/02 02:39:11;;;;;;;16.60;10.02;;;7.20;99.90;;;;;;5072515;28;20150;-72
2022/10/02 02:41:44;;;;;;;15.65;8.45;;;7.20;99.90;;;;;;5069031;28;20427;-72
2022/10/02 02:44:20;;;;;;;10.35;8.52;;;7.20;99.90;;;;;;5089293;28;20048;-72
2022/10/02 02:47:05;;;;;;;9.20;7.80;;;7.20;99.90;;;;;;5088498;28;20117;-72
2022/10/02 02:49:44;;;;;;;10.18;8.05;;;7.20;99.90;;;;;;5073836;28;20511;-72
2022/10/02 02:52:17;;;;;;;11.20;8.90;;;7.20;99.90;;;;;;5053315;28;20148;-71
2022/10/02 02:54:48;;;;;;;10.65;8.07;;;7.10;99.90;;;;;;5057214;28;20063;-71
2022/10/02 02:57:18;;;;;;;10.90;8.65;;;7.10;99.90;;;;;;5068364;28;20048;-71
2022/10/02 02:59:49;;;;;;;11.68;8.65;;;7.00;99.90;;;;;;5086889;28;20044;-72
2022/10/02 03:02:18;;;;;;;18.88;12.95;;;7.00;99.90;;;;;;5088015;28;20056;-72
2022/10/02 03:04:45;;;;;;;10.95;8.10;;;6.90;99.90;;;;;;5087984;28;20134;-70
2022/10/02 03:07:16;;;;;;;14.98;8.80;;;6.90;99.90;;;;;;5085879;28;20495;-71
2022/10/02 03:10:02;;;;;;;13.27;8.93;;;6.80;99.90;;;;;;5070599;28;20458;-71
2022/10/02 03:12:46;;;;;;;11.85;8.57;;;6.80;99.90;;;;;;5074759;28;20333;-71
2022/10/02 03:15:28;;;;;;;11.77;8.60;;;6.80;99.90;;;;;;5087530;28;20048;-72
2022/10/02 03:18:13;;;;;;;12.10;8.60;;;6.90;99.90;;;;;;5085748;28;20073;-72
2022/10/02 03:20:50;;;;;;;13.10;8.52;;;6.80;99.90;;;;;;5072451;28;20162;-72
2022/10/02 03:23:25;;;;;;;12.82;8.88;;;6.80;99.90;;;;;;5091806;28;20542;-71
2022/10/02 03:25:59;;;;;;;9.23;7.28;;;6.80;99.90;;;;;;5091703;28;20575;-71
2022/10/02 03:28:34;;;;;;;9.45;6.72;;;6.80;99.90;;;;;;5088486;28;20097;-72
2022/10/02 03:31:01;;;;;;;9.23;7.25;;;6.80;99.90;;;;;;5091852;28;20075;-72
2022/10/02 03:33:32;;;;;;;6.60;5.90;;;6.80;99.90;;;;;;5065489;28;20140;-72
2022/10/02 03:36:00;;;;;;;7.63;5.70;;;6.80;99.90;;;;;;5086384;28;20048;-71
2022/10/02 03:38:29;;;;;;;6.03;5.53;;;6.80;99.90;;;;;;5091241;28;20507;-72
2022/10/02 03:40:58;;;;;;;6.50;4.63;;;6.80;99.90;;;;;;5090777;28;20055;-71
2022/10/02 03:43:29;;;;;;;6.15;4.90;;;6.80;99.90;;;;;;5088818;28;20147;-71
2022/10/02 03:45:57;;;;;;;5.85;4.63;;;6.80;99.90;;;;;;5085017;28;20040;-71
2022/10/02 03:48:24;;;;;;;5.03;4.53;;;6.70;99.90;;;;;;5072990;28;20036;-72
2022/10/02 03:50:53;;;;;;;5.85;4.97;;;6.60;99.90;;;;;;5091591;28;20101;-71
2022/10/02 03:53:23;;;;;;;6.22;4.45;;;6.60;99.90;;;;;;5093200;28;20085;-71
2022/10/02 03:56:00;;;;;;;5.00;4.50;;;6.70;99.90;;;;;;5091100;28;20048;-71
2022/10/02 03:58:27;;;;;;;4.93;4.53;;;6.60;99.90;;;;;;5091661;28;20093;-71
2022/10/02 04:01:01;;;;;;;7.18;4.85;;;6.60;99.90;;;;;;5074097;28;20040;-71
2022/10/02 04:03:35;;;;;;;8.20;5.50;;;6.50;99.90;;;;;;5073074;28;20052;-72
2022/10/02 04:06:09;;;;;;;5.93;4.90;;;6.50;99.90;;;;;;5061439;28;20044;-71
2022/10/02 04:08:43;;;;;;;7.15;6.15;;;6.40;99.90;;;;;;5071599;28;20043;-71
2022/10/02 04:11:17;;;;;;;7.00;5.68;;;6.40;99.90;;;;;;5072948;28;20048;-71
2022/10/02 04:13:48;;;;;;;6.32;5.40;;;6.40;99.90;;;;;;5052540;28;20508;-71
2022/10/02 04:16:23;;;;;;;7.57;5.70;;;6.40;99.90;;;;;;5091960;28;20152;-71
2022/10/02 04:18:56;;;;;;;8.45;5.95;;;6.50;99.90;;;;;;5072250;28;20032;-71
2022/10/02 04:21:35;;;;;;;6.30;5.25;;;6.50;99.90;;;;;;5073927;28;20075;-72
2022/10/02 04:24:14;;;;;;;5.93;4.70;;;6.50;99.90;;;;;;5068229;28;20530;-73
2022/10/02 04:26:47;;;;;;;9.50;5.68;;;6.50;99.90;;;;;;5091002;28;20075;-72
2022/10/02 04:29:22;;;;;;;6.68;4.20;;;6.50;99.90;;;;;;5091853;28;20454;-71
2022/10/02 04:31:53;;;;;;;6.90;5.45;;;6.50;99.90;;;;;;5087118;28;20048;-71
2022/10/02 04:34:20;;;;;;;6.75;4.57;;;6.50;99.90;;;;;;5075961;28;20521;-72
2022/10/02 04:37:05;;;;;;;5.47;4.80;;;6.50;99.90;;;;;;5090271;28;20044;-72
2022/10/02 04:39:55;;;;;;;5.72;3.92;;;6.50;99.90;;;;;;5073538;28;20044;-72
2022/10/02 04:42:39;;;;;;;4.50;4.03;;;6.50;99.90;;;;;;5090373;28;20415;-72
2022/10/02 04:45:35;;;;;;;6.70;4.22;;;6.50;99.90;;;;;;5090641;28;20097;-72
2022/10/02 04:48:34;;;;;;;9.75;4.68;;;6.50;99.90;;;;;;5067153;28;20086;-72
2022/10/02 04:51:16;;;;;;;7.28;3.95;;;6.50;99.90;;;;;;5053665;28;20044;-71
2022/10/02 04:54:13;;;;;;;6.57;4.93;;;6.60;99.90;;;;;;5089397;28;20565;-72
2022/10/02 04:57:00;;;;;;;7.50;5.20;;;6.60;99.90;;;;;;5091258;28;20419;-72
2022/10/02 04:59:49;;;;;;;8.48;5.00;;;6.60;99.90;;;;;;5089088;28;20117;-72
2022/10/02 05:02:35;;;;;;;18.15;7.35;;;6.60;99.90;;;;;;5071123;28;20427;-72
2022/10/02 05:05:25;;;;;;;9.57;5.78;;;6.60;99.90;;;;;;5071817;28;20054;-73
2022/10/02 05:08:24;;;;;;;32.08;5.78;;;6.60;99.90;;;;;;5056640;28;20044;-73
2022/10/02 05:11:08;;;;;;;8.75;4.88;;;6.60;99.90;;;;;;5087443;28;20457;-73
2022/10/02 05:14:05;;;;;;;9.35;4.90;;;6.60;99.90;;;;;;5090752;28;20048;-72
2022/10/02 05:16:58;;;;;;;10.40;5.63;;;6.70;99.90;;;;;;5066382;28;20048;-72
2022/10/02 05:19:56;;;;;;;15.45;5.75;;;6.70;99.90;;;;;;5066206;28;20052;-72
2022/10/02 05:22:54;;;;;;;30.92;5.90;;;6.80;99.90;;;;;;5065269;28;20131;-74
2022/10/02 05:25:59;;;;;;;129.32;8.45;;;6.80;99.90;;;;;;5077189;28;20450;-73
2022/10/02 05:28:47;;;;;;;31.30;6.00;;;6.80;99.90;;;;;;5085466;28;20048;-73
2022/10/02 05:31:28;;;;;;;101.75;8.77;;;6.80;99.90;;;;;;5089059;28;20130;-73
2022/10/02 05:34:19;;;;;;;8.18;5.88;;;6.80;99.90;;;;;;5091116;28;20100;-73
2022/10/02 05:37:05;;;;;;;5.82;4.90;;;6.90;99.90;;;;;;5077674;28;20056;-73
2022/10/02 05:39:36;;;;;;;9.00;5.72;;;6.90;99.90;;;;;;5088878;28;20116;-73
2022/10/02 05:42:12;;;;;;;11.80;5.50;;;7.00;99.90;;;;;;5070935;28;20064;-73
2022/10/02 05:44:44;;;;;;;8.85;5.35;;;7.00;99.90;;;;;;5073305;28;20040;-74
2022/10/02 05:47:18;;;;;;;10.90;5.20;;;7.10;99.90;;;;;;5047784;28;20052;-75
2022/10/02 05:49:51;;;;;;;14.93;5.68;;;7.10;99.90;;;;;;5077886;28;20052;-73
2022/10/02 05:52:23;;;;;;;25.20;5.90;;;7.10;99.90;;;;;;5085249;28;20131;-72
2022/10/02 05:54:56;;;;;;;15.27;5.35;;;7.20;99.90;;;;;;5084567;28;20044;-73
2022/10/02 05:57:31;;;;;;;;;;;7.20;99.90;;;;;;5076724;28;20089;-75
2022/10/02 06:00:12;;;;;;;5.50;5.00;;;7.20;99.90;;;;;;5075494;28;19924;-74
2022/10/02 06:02:56;;;;;;;7.32;5.32;;;7.30;99.90;;;;;;5084128;28;20070;-75
2022/10/02 06:05:41;;;;;;;18.60;13.13;;;7.30;99.90;;;;;;5090163;28;20082;-75
2022/10/02 06:08:16;;;;;;;9.95;5.10;;;7.40;99.90;;;;;;5089027;28;20746;-73
2022/10/02 06:10:56;;;;;;;12.15;5.00;;;7.50;99.90;;;;;;5068007;28;20044;-76
2022/10/02 06:13:34;;;;;;;5.82;5.00;;;7.50;99.90;;;;;;5067475;28;20079;-72
2022/10/02 06:16:11;;;;;;;8.00;5.00;;;7.50;99.90;;;;;;5058111;28;20404;-72
2022/10/02 06:18:45;;;;;;;8.55;5.72;;;7.50;99.90;;;;;;5080491;28;20052;-72
2022/10/02 06:21:24;;;;;;;6.15;5.00;;;7.50;99.90;;;;;;5069054;28;20055;-72
2022/10/02 06:23:56;;;;;;;7.22;4.80;;;7.60;99.90;;;;;;5062757;28;20059;-73
2022/10/02 06:26:32;;;;;;;6.63;4.88;;;7.60;99.90;;;;;;5077754;28;20074;-77
2022/10/02 06:29:06;;;;;;;5.85;4.93;;;7.60;99.90;;;;;;5083062;28;20539;-78
2022/10/02 06:31:42;;;;;;;10.50;5.10;;;7.70;99.90;;;;;;5066344;28;20120;-77
2022/10/02 06:34:15;;;;;;;7.43;5.72;;;7.80;99.90;;;;;;5068104;28;20087;-76
2022/10/02 06:37:25;;;;;;;12.73;6.18;;;7.80;99.90;;;;;;5072403;28;20051;-77
2022/10/02 06:40:15;;;;;;;9.27;5.45;;;7.80;99.90;;;;;;5018437;28;20043;-77
2022/10/02 06:42:54;;;;;;;7.32;6.00;;;7.80;99.90;;;;;;5082672;28;20484;-71
2022/10/02 06:45:34;;;;;;;12.43;6.50;;;7.90;99.90;;;;;;5087446;28;20048;-73
2022/10/02 06:48:12;;;;;;;8.38;5.95;;;7.90;99.90;;;;;;5080270;28;20040;-77
2022/10/02 06:50:48;;;;;;;7.95;5.15;;;8.00;99.90;;;;;;5059302;28;20044;-72
2022/10/02 06:53:38;;;;;;;11.95;6.13;;;8.00;99.90;;;;;;5084117;28;20056;-77
2022/10/02 06:56:26;;;;;;;6.65;5.60;;;8.10;99.90;;;;;;5112368;28;20143;-76
2022/10/02 06:59:08;;;;;;;6.45;5.38;;;8.10;99.90;;;;;;5088715;28;20348;-77
2022/10/02 07:01:50;;;;;;;6.32;5.72;;;8.20;99.90;;;;;;5070925;28;20580;-77
2022/10/02 07:04:41;;;;;;;8.60;6.25;;;8.20;99.90;;;;;;5072325;28;20093;-77
2022/10/02 07:07:26;;;;;;;8.82;5.93;;;8.40;99.90;;;;;;5076752;28;20058;-76
2022/10/02 07:10:14;;;;;;;9.35;5.82;;;8.50;99.90;;;;;;5076026;28;20043;-78
2022/10/02 07:13:06;;;;;;;8.73;6.40;;;8.50;99.90;;;;;;5074765;28;20101;-71
2022/10/02 07:16:05;;;;;;;10.98;6.63;;;8.60;99.90;;;;;;5086154;28;20115;-73
2022/10/02 07:18:48;;;;;;;11.63;7.00;;;8.70;99.90;;;;;;5065538;28;20048;-75
2022/10/02 07:21:29;;;;;;;14.88;9.65;;;8.70;99.90;;;;;;5090498;28;20094;-73
2022/10/02 07:24:09;;;;;;;9.98;6.40;;;8.70;99.90;;;;;;5055968;28;20055;-71
2022/10/02 07:26:46;;;;;;;13.00;8.38;;;8.80;99.90;;;;;;5091764;28;20048;-72
2022/10/02 07:29:37;;;;;;;7.40;5.80;;;8.80;99.90;;;;;;5093672;28;20056;-72
2022/10/02 07:32:38;;;;;;;7.38;5.80;;;8.90;99.90;;;;;;5090675;28;20040;-71
2022/10/02 07:35:39;;;;;;;10.63;6.82;;;9.00;99.90;;;;;;5087333;28;20044;-74
2022/10/02 07:38:42;;;;;;;12.77;7.30;;;9.10;99.90;;;;;;5090666;28;20048;-72
2022/10/02 07:42:05;;;;;;;12.70;6.85;;;9.20;99.90;;;;;;5091310;28;20566;-72
2022/10/02 07:45:05;;;;;;;9.07;6.43;;;9.10;99.90;;;;;;5088709;28;20055;-73
2022/10/02 07:47:57;;;;;;;17.63;12.02;;;9.10;99.90;;;;;;5082407;28;20532;-73
2022/10/02 07:50:36;;;;;;;9.15;7.25;;;9.20;99.90;;;;;;5086935;28;20048;-72
2022/10/02 07:53:16;;;;;;;7.30;5.93;;;9.20;99.90;;;;;;5069500;28;20075;-74
2022/10/02 07:55:52;;;;;;;6.68;5.47;;;9.30;99.90;;;;;;5086046;28;20504;-72
2022/10/02 07:58:34;;;;;;;8.32;6.38;;;9.40;99.90;;;;;;5085163;28;20139;-72
2022/10/02 08:01:06;;;;;;;10.40;6.38;;;9.40;99.90;;;;;;5084849;28;20446;-79
2022/10/02 08:03:39;;;;;;;8.85;6.40;;;9.40;99.90;;;;;;5089410;28;20417;-78
2022/10/02 08:06:08;;;;;;;6.28;5.68;;;9.30;99.90;;;;;;5085124;28;20071;-74
2022/10/02 08:08:43;;;;;;;7.70;6.32;;;9.20;99.90;;;;;;5086242;28;20075;-76
2022/10/02 08:11:17;;;;;;;7.25;6.55;;;9.20;99.90;;;;;;5078383;28;20083;-77
2022/10/02 08:13:53;;;;;;;9.35;7.00;;;9.10;99.90;;;;;;5061481;28;20308;-78
2022/10/02 08:16:23;;;;;;;7.47;6.43;;;9.10;99.90;;;;;;5083322;28;20466;-76
2022/10/02 08:18:57;;;;;;;8.65;6.38;;;9.00;99.90;;;;;;5084598;28;20411;-78
2022/10/02 08:21:26;;;;;;;7.55;6.35;;;9.10;99.90;;;;;;5082881;28;20047;-76
2022/10/02 08:23:58;;;;;;;8.23;6.57;;;9.10;99.90;;;;;;5077160;28;20048;-75
2022/10/02 08:26:33;;;;;;;8.43;7.35;;;9.20;99.90;;;;;;5085851;28;20052;-77
2022/10/02 08:29:08;;;;;;;8.00;6.82;;;9.10;99.90;;;;;;5083822;28;20186;-80
2022/10/02 08:31:36;;;;;;;9.82;7.78;;;9.10;99.90;;;;;;5081016;28;20059;-75
2022/10/02 08:34:17;;;;;;;11.68;8.85;;;9.10;99.90;;;;;;5084243;28;20048;-77
2022/10/02 08:37:21;;;;;;;15.02;9.52;;;9.20;99.90;;;;;;5063149;28;20385;-77
2022/10/02 08:40:47;;;;;;;11.95;8.40;;;9.20;99.90;;;;;;5081151;28;20126;-74
2022/10/02 08:44:05;;;;;;;13.77;8.88;;;9.20;99.90;;;;;;5078094;28;20052;-78
2022/10/02 08:47:15;;;;;;;14.73;9.35;;;9.30;99.90;;;;;;5081506;28;20066;-75
2022/10/02 08:50:14;;;;;;;11.07;8.90;;;9.40;99.90;;;;;;5024888;28;20067;-78
2022/10/02 08:53:25;;;;;;;13.48;9.30;;;9.50;99.90;;;;;;5083160;28;20430;-77
2022/10/02 08:56:13;;;;;;;13.27;9.75;;;9.70;99.90;;;;;;5059429;28;20050;-80
2022/10/02 08:59:43;;;;;;;13.43;10.38;;;9.80;99.90;;;;;;5079641;28;20393;-74
2022/10/02 09:03:24;;;;;;;10.18;9.15;;;9.90;99.90;;;;;;5081705;28;20072;-75
2022/10/02 09:06:43;;;;;;;12.20;9.20;;;10.00;99.90;;;;;;5058576;28;20044;-76
2022/10/02 09:10:05;;;;;;;14.38;8.50;;;10.10;99.90;;;;;;5074053;28;20043;-78
2022/10/02 09:13:21;;;;;;;15.98;10.05;;;10.00;99.90;;;;;;5006725;28;20079;-77
2022/10/02 09:16:06;;;;;;;13.82;9.55;;;10.10;99.90;;;;;;5081335;28;20112;-76
2022/10/02 09:18:58;;;;;;;14.40;9.50;;;10.30;99.90;;;;;;5073260;28;20139;-76
2022/10/02 09:21:55;;;;;;;15.13;10.32;;;10.50;99.90;;;;;;5088866;28;20052;-77
2022/10/02 09:25:04;;;;;;;11.88;9.48;;;10.70;99.90;;;;;;5088477;28;20048;-76
2022/10/02 09:28:33;;;;;;;12.45;10.00;;;10.80;99.90;;;;;;5073266;28;20055;-77
2022/10/02 09:31:43;;;;;;;18.35;8.77;;;11.00;99.90;;;;;;5082304;28;20166;-79
2022/10/02 09:34:57;;;;;;;14.43;10.68;;;11.20;99.90;;;;;;5096156;28;20066;-79
2022/10/02 09:37:51;;;;;;;14.65;10.35;;;11.20;99.90;;;;;;5089000;28;20123;-72
2022/10/02 09:40:55;;;;;;;15.32;10.60;;;11.00;99.90;;;;;;5072682;28;20047;-73
2022/10/02 09:44:19;;;;;;;16.75;11.77;;;11.00;99.90;;;;;;5088668;28;20079;-75
2022/10/02 09:47:23;;;;;;;20.77;10.77;;;10.90;99.90;;;;;;5084923;28;20063;-75
2022/10/02 09:50:51;;;;;;;14.38;11.70;;;11.00;99.90;;;;;;5065579;28;20553;-72
2022/10/02 09:54:07;;;;;;;14.40;11.57;;;11.20;99.90;;;;;;5068022;28;20163;-75
2022/10/02 09:57:27;;;;;;;15.25;11.30;;;11.60;99.90;;;;;;5081188;28;20153;-74
2022/10/02 10:00:18;;;;;;;13.27;10.75;;;12.00;99.90;;;;;;5082352;28;20505;-74
2022/10/02 10:03:30;;;;;;;12.40;10.90;;;12.50;99.90;;;;;;5079555;28;20049;-74
2022/10/02 10:06:51;;;;;;;10.55;9.27;;;12.80;99.90;;;;;;5081435;28;20047;-73
2022/10/02 10:10:10;;;;;;;18.58;10.82;;;13.00;99.90;;;;;;5068687;28;20047;-74
2022/10/02 10:13:19;;;;;;;18.38;11.63;;;13.00;99.90;;;;;;5087113;28;20070;-75
2022/10/02 10:16:22;;;;;;;12.02;10.73;;;13.20;99.90;;;;;;5071485;28;20428;-73
2022/10/02 10:19:53;;;;;;;13.37;10.93;;;13.40;99.90;;;;;;5083436;28;20056;-78
2022/10/02 10:23:08;;;;;;;13.60;11.48;;;13.40;99.90;;;;;;5084302;28;20306;-80
2022/10/02 10:26:20;;;;;;;12.35;11.10;;;13.50;99.90;;;;;;5074085;28;20051;-76
2022/10/02 10:29:38;;;;;;;15.48;12.35;;;13.50;99.90;;;;;;5092020;28;20075;-74
2022/10/02 10:32:53;;;;;;;14.60;10.85;;;13.60;99.90;;;;;;5071006;28;20044;-75
2022/10/02 10:35:51;;;;;;;11.73;9.93;;;13.60;99.90;;;;;;5088749;28;20043;-73
2022/10/02 10:38:49;;;;;;;11.93;10.25;;;13.70;99.90;;;;;;5085930;28;20048;-74
2022/10/02 10:42:04;;;;;;;14.65;11.02;;;13.80;99.90;;;;;;5089734;28;20273;-73
2022/10/02 10:45:09;;;;;;;19.50;13.05;;;14.00;99.90;;;;;;5082471;28;20607;-75
2022/10/02 10:48:08;;;;;;;10.68;9.10;;;14.20;99.90;;;;;;5044876;28;20052;-75
2022/10/02 10:50:51;;;;;;;9.88;8.93;;;14.50;99.90;;;;;;5091448;28;20396;-75
2022/10/02 10:54:28;;;;;;;10.98;9.40;;;14.80;99.90;;;;;;5092576;28;20551;-74
2022/10/02 10:57:03;;;;;;;7.95;7.25;;;15.00;99.90;;;;;;4989731;28;20104;-75
2022/10/02 11:00:25;;;;;;;8.82;8.00;;;15.20;99.90;;;;;;5074981;28;20055;-74
2022/10/02 11:03:32;;;;;;;8.30;7.18;;;15.20;99.90;;;;;;5050922;28;20121;-74
2022/10/02 11:06:37;;;;;;;7.60;6.90;;;15.30;99.90;;;;;;5088141;28;20040;-74
2022/10/02 11:09:41;;;;;;;8.25;7.47;;;15.30;99.90;;;;;;5091470;28;20080;-76
2022/10/02 11:12:49;;;;;;;6.35;5.70;;;15.40;99.90;;;;;;5031749;28;20103;-75
2022/10/02 11:16:12;;;;;;;7.70;6.15;;;15.50;99.90;;;;;;5029469;28;20057;-77
2022/10/02 11:19:17;;;;;;;12.95;7.45;;;15.80;99.90;;;;;;5030141;28;20095;-76
2022/10/02 11:22:07;;;;;;;5.32;5.03;;;16.10;99.90;;;;;;5023839;28;20057;-75
2022/10/02 11:24:59;;;;;;;7.28;4.95;;;16.40;99.90;;;;;;5030372;28;20057;-77
2022/10/02 11:27:57;;;;;;;6.20;4.93;;;17.00;99.90;;;;;;5031245;28;20571;-75
2022/10/02 11:30:31;;;;;;;7.82;5.47;;;18.00;99.90;;;;;;5031019;28;20387;-75
2022/10/02 11:33:49;;;;;;;8.02;5.50;;;19.20;99.90;;;;;;5031960;28;20047;-76
2022/10/02 11:36:49;;;;;;;5.13;4.70;;;20.90;99.90;;;;;;5028716;28;20463;-79
2022/10/02 11:39:53;;;;;;;4.60;4.22;;;22.10;99.90;;;;;;5027050;28;20049;-77
2022/10/02 11:42:41;;;;;;;3.38;3.17;;;22.50;96.10;;;;;;5031576;28;20057;-80
2022/10/02 11:45:35;;;;;;;3.88;3.58;;;22.40;93.40;;;;;;5034010;28;20050;-77
2022/10/02 11:48:39;;;;;;;3.72;3.40;;;21.70;93.80;;;;;;5045441;28;20075;-75
2022/10/02 11:51:45;;;;;;;7.32;3.85;;;20.80;95.30;;;;;;5039347;28;20071;-77
2022/10/02 11:54:49;;;;;;;4.25;3.83;;;19.80;96.80;;;;;;5027221;28;20087;-76
2022/10/02 11:57:38;;;;;;;6.55;5.00;;;19.10;99.30;;;;;;5027285;28;20049;-76
2022/10/02 12:00:28;;;;;;;5.97;4.40;;;18.60;99.90;;;;;;5032433;28;20428;-77
2022/10/02 12:03:02;;;;;;;4.75;3.60;;;18.00;99.90;;;;;;5027842;28;20137;-79
2022/10/02 12:05:52;;;;;;;4.30;3.35;;;17.40;99.90;;;;;;5030398;28;20081;-78
2022/10/02 12:08:33;;;;;;;3.83;3.53;;;17.10;99.90;;;;;;5047465;28;20049;-80
2022/10/02 12:11:13;;;;;;;4.93;3.20;;;16.70;99.90;;;;;;5037244;28;20049;-80
2022/10/02 12:14:00;;;;;;;3.65;3.40;;;16.50;99.90;;;;;;5027955;28;20061;-80
2022/10/02 12:16:50;;;;;;;3.50;3.20;;;16.50;99.90;;;;;;5031924;28;20111;-80
2022/10/02 12:26:57;;;;;;;3.25;2.95;;;16.50;99.90;;;;;;5031689;28;20108;-82
2022/10/02 12:28:32;;;;;;;3.45;3.00;;;16.30;99.90;;;;;;5030955;28;20497;-79
2022/10/02 12:31:09;;;;;;;3.85;3.47;;;16.10;99.90;;;;;;5029811;28;20049;-79
2022/10/02 12:33:50;;;;;;;4.32;3.38;;;15.80;99.90;;;;;;5033996;28;20044;-79
2022/10/02 12:36:38;;;;;;;7.15;3.60;;;15.50;99.90;;;;;;5032513;28;20061;-80
2022/10/02 12:39:28;;;;;;;3.20;3.00;;;15.40;99.90;;;;;;5030151;28;20061;-79
2022/10/02 12:42:12;;;;;;;3.88;3.58;;;15.50;99.90;;;;;;5026386;28;20140;-78
2022/10/02 12:45:43;;;;;;;5.57;3.38;;;15.60;99.90;;;;;;5028864;28;20045;-78
2022/10/02 12:48:43;;;;;;;3.35;3.05;;;16.00;99.90;;;;;;5028222;28;20049;-76
2022/10/02 12:51:34;;;;;;;2.97;2.75;;;16.40;99.90;;;;;;5026780;28;20061;-82
2022/10/02 12:54:39;;;;;;;3.22;2.92;;;16.80;99.90;;;;;;5047678;28;20057;-79
2022/10/02 12:57:52;;;;;;;2.95;2.75;;;17.30;99.90;;;;;;5027995;28;20049;-79
2022/10/02 13:00:23;;;;;;;3.57;3.27;;;17.60;99.90;;;;;;5029014;28;20369;-82
2022/10/02 13:03:45;;;;;;;7.47;3.75;;;17.30;99.90;;;;;;5025774;28;20054;-78
2022/10/02 13:07:18;;;;;;;6.65;3.63;;;16.90;99.90;;;;;;4957800;28;20066;-84
2022/10/02 13:10:02;;;;;;;5.00;3.45;;;16.60;99.90;;;;;;5025827;28;20053;-80
2022/10/02 13:12:55;;;;;;;4.18;3.60;;;16.60;99.90;;;;;;5020343;28;20119;-79
2022/10/02 13:15:39;;;;;;;5.13;3.50;;;17.70;99.90;;;;;;5024902;28;20057;-82
2022/10/02 13:18:43;;;;;;;9.20;4.20;;;18.80;99.90;;;;;;5031807;28;20084;-80
2022/10/02 13:21:19;;;;;;;4.07;3.63;;;18.50;99.90;;;;;;5018938;28;20072;-81
2022/10/02 13:24:04;;;;;;;3.80;3.40;;;18.00;99.90;;;;;;5023514;28;20093;-79
2022/10/02 13:26:41;;;;;;;5.40;3.58;;;17.80;99.90;;;;;;5030680;28;20061;-79
2022/10/02 13:29:44;;;;;;;4.97;4.03;;;17.30;99.90;;;;;;5030206;28;20053;-80
2022/10/02 13:32:38;;;;;;;3.85;3.55;;;16.70;99.90;;;;;;5030495;28;20042;-76
2022/10/02 13:35:31;;;;;;;6.43;4.25;;;16.50;99.90;;;;;;5023457;28;20149;-80
2022/10/02 13:38:24;;;;;;;6.15;3.60;;;16.40;99.90;;;;;;5019533;28;20049;-84
2022/10/02 13:40:58;;;;;;;;;;;16.20;99.90;;;;;;5028903;28;20052;-82
2022/10/02 13:43:51;;;;;;;4.53;4.20;;;16.20;99.90;;;;;;5029410;28;19925;-82
2022/10/02 13:46:46;;;;;;;6.65;5.22;;;16.40;99.90;;;;;;5031010;28;20049;-82
2022/10/02 13:49:27;;;;;;;5.80;5.20;;;16.40;99.90;;;;;;5038087;28;20266;-79
2022/10/02 13:52:02;;;;;;;5.13;4.63;;;16.10;99.90;;;;;;5027261;28;20412;-80
2022/10/02 13:54:56;;;;;;;5.75;4.70;;;15.60;99.90;;;;;;5020150;28;20054;-77
2022/10/02 13:57:50;;;;;;;4.60;4.28;;;15.00;99.90;;;;;;5011082;28;20070;-77
2022/10/02 14:00:39;;;;;;;5.60;5.05;;;14.40;99.90;;;;;;5024659;28;20052;-76
2022/10/02 14:03:27;;;;;;;5.15;4.72;;;14.00;99.90;;;;;;5029482;28;20104;-79
2022/10/02 14:06:02;;;;;;;4.75;4.25;;;13.60;99.90;;;;;;5030138;28;20043;-79
2022/10/02 14:09:03;;;;;;;4.72;4.32;;;13.40;99.90;;;;;;5034959;28;20105;-76
2022/10/02 14:11:49;;;;;;;4.88;4.45;;;13.30;99.90;;;;;;5026644;28;20053;-89
2022/10/02 14:14:31;;;;;;;4.75;4.35;;;13.20;99.90;;;;;;5011362;28;20050;-83
2022/10/02 14:17:10;;;;;;;7.10;4.97;;;13.20;99.90;;;;;;5026262;28;20460;-82
2022/10/02 14:20:16;;;;;;;7.05;5.15;;;13.20;99.90;;;;;;5026724;28;20136;-84
2022/10/02 14:23:05;;;;;;;8.52;4.70;;;13.10;99.90;;;;;;5008840;28;20049;-82
2022/10/02 14:25:51;;;;;;;5.28;4.75;;;12.90;99.90;;;;;;5028094;28;20076;-85
2022/10/02 14:29:05;;;;;;;6.95;4.90;;;12.80;99.90;;;;;;5030066;28;20041;-80
2022/10/02 14:32:25;;;;;;;6.88;5.05;;;12.70;99.90;;;;;;5029007;28;20398;-78
2022/10/02 14:35:23;;;;;;;7.38;5.47;;;12.50;99.90;;;;;;5001617;28;20045;-80